Huvudsida
METAR-TAF:

METAR-TAF

Flygplatser :

Ålesund, Norge

Ålesunds flygplats. Vigra

latitud: 62-34N, longitud: 006-07E, höjd: 2 m

Aktuellt väderrapport

Denna rapport gjordes för 39 minuter sedan, klockan 14:20 UTC
Vind 16 kt från väst/sydväst
Temperatur 8°C
Fuktighet 81%
Tryck 1017 hPa
Sikt 10 km eller mer
Spridda moln på en höjd av 1800 ft
Brutna moln på en höjd av 2400 ft

METAR: ENAL 211420Z 24016KT 9999 SCT018 BKN024 08/05 Q1017

Tid: 16:59 (14:59 UTC)

Väderprognos

Denna rapport gjordes för 59 minuter sedan, klockan 14:00 UTC
Prognos gäller från 21 kl. 15 UTC till 21 kl. 22 UTC
Vind 18 kt från väst/sydväst
Sikt 10 km eller mer
Få moln på en höjd av 1500 ft
Brutna moln på en höjd av 2500 ft
Sannolikhet 30% :
Temporärt
från 21 kl. 15 UTC till 21 kl. 22 UTC
Brutna moln på en höjd av 1000 ft
Blir
från 21 kl. 16 UTC till 21 kl. 18 UTC
Vind 8 kt från väst/sydväst

TAF: ENAL 211400Z 2115/2122 25018KT 9999 FEW015 BKN025 PROB30 TEMPO 2115/2122 BKN010 BECMG 2116/2118 24008KT

Aktuella väderrapporter och prognoser från 4000 flygplatser (METAR- och TAF-rapporter).

De tillgängliga stationerna syns som gula och röda prickar på kartan.

För musen över prickarna för att se namnen på stationerna.

Klicka sedan för att få väderrapporter och prognoser.

För att ändra kartan: Klicka på de gröna knapparna med ett svart kors på för att zooma in; den gröna knappen med ett streck på för att zooma ut; eller på de gröna pilarna för angränsande kartor.


METAR-TAF: